createdAt,value
2019-03-17T00:00:16.353Z,0.30
2019-03-17T00:02:44.812Z,0.40
2019-03-17T00:05:13.452Z,0.30
2019-03-17T00:07:42.010Z,0.40
2019-03-17T00:10:10.408Z,0.30
2019-03-17T00:12:38.850Z,0.40
2019-03-17T00:15:07.756Z,0.30
2019-03-17T00:17:36.298Z,0.30
2019-03-17T00:20:06.173Z,0.40
2019-03-17T00:22:34.642Z,0.37
2019-03-17T00:25:09.303Z,0.40
2019-03-17T00:27:33.273Z,0.40
2019-03-17T00:30:02.035Z,0.40
2019-03-17T00:32:30.434Z,0.40
2019-03-17T00:34:58.967Z,0.40
2019-03-17T00:37:27.391Z,0.23
2019-03-17T00:39:55.894Z,0.30
2019-03-17T00:42:24.300Z,0.50
2019-03-17T00:44:52.867Z,0.30
2019-03-17T00:47:21.275Z,0.30
2019-03-17T00:49:49.752Z,0.40
2019-03-17T00:52:18.224Z,0.30
2019-03-17T00:54:46.712Z,0.80
2019-03-17T00:57:15.107Z,0.33
2019-03-17T00:59:43.633Z,0.40
2019-03-17T01:02:12.141Z,0.20
2019-03-17T01:04:40.627Z,0.50
2019-03-17T01:07:09.254Z,0.50
2019-03-17T01:09:37.698Z,0.40
2019-03-17T01:12:06.154Z,0.80
2019-03-17T01:14:34.634Z,0.40
2019-03-17T01:17:03.195Z,0.43
2019-03-17T01:19:31.591Z,0.43
2019-03-17T01:22:00.206Z,0.30
2019-03-17T01:24:28.712Z,0.40
2019-03-17T01:26:57.239Z,0.57
2019-03-17T01:29:25.736Z,0.60
2019-03-17T01:31:54.261Z,0.50
2019-03-17T01:34:22.681Z,0.60
2019-03-17T01:36:51.220Z,0.47
2019-03-17T01:39:19.650Z,0.40
2019-03-17T01:41:48.117Z,0.50
2019-03-17T01:44:16.579Z,0.40
2019-03-17T01:46:44.998Z,0.40
2019-03-17T01:49:13.523Z,0.70
2019-03-17T01:51:41.998Z,0.60
2019-03-17T01:54:10.492Z,0.53
2019-03-17T01:56:38.942Z,0.40
2019-03-17T01:59:07.444Z,0.53
2019-03-17T02:01:35.936Z,0.50
2019-03-17T02:04:04.602Z,0.50
2019-03-17T02:06:33.053Z,0.50
2019-03-17T02:09:01.587Z,0.50
2019-03-17T02:11:30.149Z,0.60
2019-03-17T02:13:58.620Z,0.53
2019-03-17T02:16:27.077Z,0.70
2019-03-17T02:18:55.507Z,0.50
2019-03-17T02:21:23.894Z,0.50
2019-03-17T02:23:52.326Z,0.60
2019-03-17T02:26:20.744Z,0.33
2019-03-17T02:28:49.131Z,0.40
2019-03-17T02:31:17.574Z,0.40
2019-03-17T02:33:46.149Z,0.40
2019-03-17T02:36:14.545Z,0.40
2019-03-17T02:38:43.055Z,0.50
2019-03-17T02:41:11.541Z,0.60
2019-03-17T02:43:39.991Z,0.30
2019-03-17T02:46:08.429Z,0.60
2019-03-17T02:48:36.889Z,0.40
2019-03-17T02:51:05.311Z,0.97
2019-03-17T02:53:33.832Z,1.03
2019-03-17T02:56:02.290Z,0.53
2019-03-17T02:58:31.035Z,0.70
2019-03-17T03:00:59.473Z,0.40
2019-03-17T03:03:27.937Z,0.60
2019-03-17T03:05:56.424Z,0.50
2019-03-17T03:08:24.985Z,0.60
2019-03-17T03:10:53.382Z,0.43
2019-03-17T03:13:21.851Z,0.50
2019-03-17T03:15:50.348Z,0.60
2019-03-17T03:18:18.816Z,1.37
2019-03-17T03:20:47.329Z,0.50
2019-03-17T03:23:15.711Z,0.70
2019-03-17T03:25:44.112Z,0.40
2019-03-17T03:28:12.524Z,0.50
2019-03-17T03:30:40.930Z,0.50
2019-03-17T03:33:09.469Z,0.50
2019-03-17T03:35:37.954Z,0.60
2019-03-17T03:38:06.508Z,0.80
2019-03-17T03:40:35.085Z,0.50
2019-03-17T03:43:03.555Z,0.40
2019-03-17T03:45:31.966Z,0.60
2019-03-17T03:48:00.464Z,0.40
2019-03-17T03:50:28.967Z,0.70
2019-03-17T03:52:57.357Z,0.50
2019-03-17T03:55:25.845Z,0.57
2019-03-17T03:57:54.304Z,0.60
2019-03-17T04:00:22.783Z,0.50
2019-03-17T04:02:51.307Z,0.60
2019-03-17T04:05:19.775Z,0.40
2019-03-17T04:07:48.304Z,0.50
2019-03-17T04:10:16.794Z,0.50
2019-03-17T04:12:45.478Z,0.70
2019-03-17T04:15:13.938Z,0.60
2019-03-17T04:17:42.520Z,0.50
2019-03-17T04:20:11.972Z,0.63
2019-03-17T04:22:40.519Z,0.60
2019-03-17T04:25:12.216Z,0.50
2019-03-17T04:27:40.595Z,1.00
2019-03-17T04:30:28.529Z,0.50
2019-03-17T04:32:57.328Z,0.53
2019-03-17T04:35:25.705Z,0.80
2019-03-17T04:37:54.287Z,0.43
2019-03-17T04:40:23.150Z,0.40
2019-03-17T04:42:51.624Z,0.63
2019-03-17T04:45:20.260Z,0.60
2019-03-17T04:47:48.837Z,0.50
2019-03-17T04:50:17.243Z,0.77
2019-03-17T04:52:45.834Z,0.70
2019-03-17T04:55:14.326Z,0.70
2019-03-17T04:57:42.714Z,0.60
2019-03-17T05:00:14.173Z,0.43
2019-03-17T05:02:42.592Z,0.70
2019-03-17T05:05:11.115Z,0.40
2019-03-17T05:07:39.619Z,0.40
2019-03-17T05:10:09.834Z,0.50
2019-03-17T05:12:38.335Z,0.50
2019-03-17T05:15:10.846Z,0.70
2019-03-17T05:17:39.462Z,0.50
2019-03-17T05:20:10.868Z,0.50
2019-03-17T05:22:39.262Z,0.50
2019-03-17T05:25:07.790Z,0.67
2019-03-17T05:27:36.281Z,0.57
2019-03-17T05:30:07.480Z,0.60
2019-03-17T05:32:36.078Z,0.67
2019-03-17T05:35:05.979Z,0.60
2019-03-17T05:37:34.527Z,0.40
2019-03-17T05:40:03.248Z,0.40
2019-03-17T05:42:31.895Z,0.40
2019-03-17T05:45:00.562Z,0.40
2019-03-17T05:47:29.043Z,0.40
2019-03-17T05:49:57.465Z,0.60
2019-03-17T05:52:26.086Z,0.60
2019-03-17T05:54:54.575Z,0.50
2019-03-17T05:57:23.061Z,0.40
2019-03-17T05:59:51.600Z,0.60
2019-03-17T06:02:20.148Z,0.50
2019-03-17T06:04:48.538Z,0.53
2019-03-17T06:07:18.834Z,0.50
2019-03-17T06:09:47.202Z,0.50
2019-03-17T06:12:15.595Z,0.60
2019-03-17T06:14:44.207Z,0.50
2019-03-17T06:17:12.707Z,0.50
2019-03-17T06:19:41.336Z,1.47
2019-03-17T06:22:09.851Z,0.60
2019-03-17T06:24:38.322Z,1.03
2019-03-17T06:27:06.874Z,0.40
2019-03-17T06:29:35.351Z,0.47
2019-03-17T06:32:03.743Z,0.40
2019-03-17T06:34:32.426Z,0.67
2019-03-17T06:37:00.813Z,0.60
2019-03-17T06:39:29.213Z,0.50
2019-03-17T06:41:57.749Z,0.37
2019-03-17T06:44:26.201Z,0.60
2019-03-17T06:46:54.673Z,0.60
2019-03-17T06:49:23.247Z,0.77
2019-03-17T06:51:51.633Z,0.50
2019-03-17T06:54:20.167Z,0.70
2019-03-17T06:56:48.670Z,0.43
2019-03-17T06:59:17.739Z,0.60
2019-03-17T07:01:46.382Z,0.67
2019-03-17T07:04:14.809Z,0.83
2019-03-17T07:06:43.303Z,0.50
2019-03-17T07:09:11.826Z,0.50
2019-03-17T07:11:40.325Z,0.50
2019-03-17T07:14:08.751Z,0.40
2019-03-17T07:16:37.270Z,0.50
2019-03-17T07:19:05.661Z,0.57
2019-03-17T07:21:34.145Z,0.60
2019-03-17T07:24:02.723Z,0.50
2019-03-17T07:26:31.178Z,0.50
2019-03-17T07:28:59.640Z,0.40
2019-03-17T07:31:28.147Z,0.30
2019-03-17T07:33:56.610Z,0.30
2019-03-17T07:36:25.183Z,0.40
2019-03-17T07:38:53.616Z,0.50
2019-03-17T07:41:22.120Z,0.50
2019-03-17T07:43:50.589Z,0.50
2019-03-17T07:46:18.995Z,0.50
2019-03-17T07:48:47.579Z,0.50
2019-03-17T07:51:16.080Z,0.50
2019-03-17T07:53:44.672Z,0.40
2019-03-17T07:56:13.096Z,0.50
2019-03-17T07:58:41.663Z,0.50
2019-03-17T08:01:10.047Z,0.40
2019-03-17T08:03:38.486Z,0.30
2019-03-17T08:06:07.149Z,0.50
2019-03-17T08:08:35.647Z,0.40
2019-03-17T08:11:04.450Z,0.30
2019-03-17T08:13:32.886Z,0.30
2019-03-17T08:16:01.342Z,0.40
2019-03-17T08:18:29.844Z,0.40
2019-03-17T08:20:58.367Z,0.37
2019-03-17T08:23:26.904Z,0.30
2019-03-17T08:25:55.401Z,0.43
2019-03-17T08:28:23.797Z,0.40
2019-03-17T08:30:53.561Z,0.30
2019-03-17T08:33:22.432Z,0.40
2019-03-17T08:35:50.901Z,0.30
2019-03-17T08:38:22.242Z,0.30
2019-03-17T08:40:49.347Z,0.60
2019-03-17T08:43:17.815Z,0.40
2019-03-17T08:45:46.316Z,0.30
2019-03-17T08:48:14.724Z,0.50
2019-03-17T08:50:43.217Z,0.37
2019-03-17T08:53:11.667Z,0.40
2019-03-17T08:55:40.189Z,0.27
2019-03-17T08:58:08.927Z,0.50
2019-03-17T09:00:37.553Z,0.30
2019-03-17T09:03:06.011Z,0.50
2019-03-17T09:05:34.481Z,0.30
2019-03-17T09:08:02.903Z,0.30
2019-03-17T09:10:31.371Z,0.20
2019-03-17T09:12:59.912Z,0.30
2019-03-17T09:15:28.429Z,0.30
2019-03-17T09:17:56.893Z,0.27
2019-03-17T09:20:25.342Z,0.30
2019-03-17T09:22:53.726Z,0.30
2019-03-17T09:25:22.201Z,0.30
2019-03-17T09:27:50.696Z,0.27
2019-03-17T09:30:19.166Z,0.23
2019-03-17T09:32:47.623Z,0.30
2019-03-17T09:35:16.174Z,0.30
2019-03-17T09:37:44.579Z,0.40
2019-03-17T09:40:15.248Z,0.30
2019-03-17T09:42:43.760Z,0.30
2019-03-17T09:45:13.254Z,0.30
2019-03-17T09:47:41.699Z,0.30
2019-03-17T09:50:18.679Z,0.30
2019-03-17T09:52:47.145Z,0.30
2019-03-17T09:55:15.727Z,0.30
2019-03-17T09:57:44.173Z,0.37
2019-03-17T10:00:18.106Z,0.40
2019-03-17T10:02:46.495Z,0.30
2019-03-17T10:05:14.933Z,0.30
2019-03-17T10:07:43.327Z,0.40
2019-03-17T10:10:17.316Z,0.40
2019-03-17T10:12:45.891Z,0.30
2019-03-17T10:15:15.809Z,0.30
2019-03-17T10:17:44.266Z,0.30
2019-03-17T10:20:20.510Z,0.30
2019-03-17T10:22:48.937Z,0.30
2019-03-17T10:25:17.430Z,0.30
2019-03-17T10:27:45.887Z,0.30
2019-03-17T10:30:18.132Z,0.30
2019-03-17T10:32:46.574Z,0.20
2019-03-17T10:35:15.061Z,0.37
2019-03-17T10:37:43.602Z,0.30
2019-03-17T10:40:15.818Z,0.27
2019-03-17T10:42:44.273Z,0.30
2019-03-17T10:45:13.294Z,0.40
2019-03-17T10:47:41.737Z,0.40
2019-03-17T10:50:19.918Z,0.30
2019-03-17T10:52:48.475Z,0.30
2019-03-17T10:55:16.939Z,0.50
2019-03-17T10:57:45.471Z,0.30
2019-03-17T11:00:20.939Z,0.30
2019-03-17T11:02:49.340Z,0.30
2019-03-17T11:05:17.948Z,0.27
2019-03-17T11:07:46.445Z,0.40
2019-03-17T11:10:15.180Z,0.40
2019-03-17T11:12:43.645Z,0.30
2019-03-17T11:15:19.443Z,0.37
2019-03-17T11:17:47.906Z,0.30
2019-03-17T11:20:16.451Z,0.50
2019-03-17T11:22:44.987Z,0.50
2019-03-17T11:25:17.475Z,0.60
2019-03-17T11:27:46.007Z,0.50
2019-03-17T11:30:17.865Z,0.50
2019-03-17T11:32:46.339Z,1.40
2019-03-17T11:35:14.911Z,0.50
2019-03-17T11:37:43.401Z,0.63
2019-03-17T11:40:18.806Z,0.80
2019-03-17T11:42:49.776Z,0.53
2019-03-17T11:45:17.832Z,0.70
2019-03-17T11:47:46.296Z,0.77
2019-03-17T11:50:18.515Z,0.90
2019-03-17T11:52:47.099Z,0.90
2019-03-17T11:55:16.508Z,1.10
2019-03-17T11:57:45.269Z,1.40
2019-03-17T12:00:15.991Z,0.80
2019-03-17T12:02:44.509Z,0.63
2019-03-17T12:05:13.009Z,0.70
2019-03-17T12:07:41.483Z,0.60
2019-03-17T12:10:23.829Z,0.80
2019-03-17T12:12:52.376Z,1.03
2019-03-17T12:15:23.247Z,1.23
2019-03-17T12:17:51.827Z,1.20
2019-03-17T12:20:20.304Z,1.70
2019-03-17T12:22:48.758Z,1.60
2019-03-17T12:25:19.273Z,1.60
2019-03-17T12:27:47.808Z,1.20
2019-03-17T12:30:21.689Z,1.27
2019-03-17T12:32:51.198Z,1.10
2019-03-17T12:35:19.932Z,1.47
2019-03-17T12:37:48.516Z,1.67
2019-03-17T12:40:17.092Z,1.60
2019-03-17T12:42:45.492Z,1.93
2019-03-17T12:45:14.368Z,1.20
2019-03-17T12:47:42.943Z,1.63
2019-03-17T12:50:16.643Z,1.70
2019-03-17T12:52:45.345Z,2.27
2019-03-17T12:55:13.891Z,2.30
2019-03-17T12:57:42.636Z,1.67
2019-03-17T13:00:14.448Z,2.03
2019-03-17T13:02:43.129Z,4.23
2019-03-17T13:05:12.132Z,2.00
2019-03-17T13:07:40.769Z,2.13
2019-03-17T13:10:15.962Z,1.90
2019-03-17T13:12:42.287Z,1.77
2019-03-17T13:15:11.839Z,1.57
2019-03-17T13:17:40.301Z,1.47
2019-03-17T13:20:14.637Z,1.87
2019-03-17T13:22:43.223Z,1.70
2019-03-17T13:25:12.170Z,1.80
2019-03-17T13:27:40.901Z,2.80
2019-03-17T13:30:17.363Z,2.03
2019-03-17T13:32:45.865Z,2.10
2019-03-17T13:35:14.366Z,2.27
2019-03-17T13:37:42.904Z,1.50
2019-03-17T13:40:29.316Z,1.53
2019-03-17T13:42:51.593Z,1.90
2019-03-17T13:45:20.059Z,1.57
2019-03-17T13:47:48.538Z,1.27
2019-03-17T13:50:23.689Z,0.80
2019-03-17T13:52:52.201Z,1.27
2019-03-17T13:55:20.772Z,1.00
2019-03-17T13:57:55.510Z,1.30
2019-03-17T14:00:23.993Z,1.63
2019-03-17T14:02:52.468Z,2.67
2019-03-17T14:05:20.953Z,2.87
2019-03-17T14:07:49.359Z,1.50
2019-03-17T14:10:18.672Z,1.40
2019-03-17T14:12:47.214Z,1.80
2019-03-17T14:15:16.028Z,1.73
2019-03-17T14:17:44.429Z,1.40
2019-03-17T14:20:16.131Z,1.80
2019-03-17T14:22:44.736Z,1.60
2019-03-17T14:25:22.216Z,1.60
2019-03-17T14:27:50.916Z,2.00
2019-03-17T14:30:19.328Z,1.80
2019-03-17T14:32:47.838Z,2.43
2019-03-17T14:35:16.237Z,2.00
2019-03-17T14:37:44.705Z,1.57
2019-03-17T14:40:14.784Z,2.73
2019-03-17T14:42:44.520Z,1.50
2019-03-17T14:45:17.056Z,1.70
2019-03-17T14:47:45.652Z,1.77
2019-03-17T14:50:19.386Z,1.63
2019-03-17T14:52:47.854Z,2.00
2019-03-17T14:55:16.394Z,1.60
2019-03-17T14:57:44.871Z,1.67
2019-03-17T15:00:20.372Z,1.73
2019-03-17T15:02:48.957Z,1.60
2019-03-17T15:05:17.373Z,1.80
2019-03-17T15:07:45.976Z,1.90
2019-03-17T15:10:20.427Z,1.90
2019-03-17T15:12:48.830Z,6.10
2019-03-17T15:15:20.903Z,2.20
2019-03-17T15:17:49.363Z,2.90
2019-03-17T15:20:45.869Z,2.53
2019-03-17T15:23:21.706Z,1.67
2019-03-17T15:25:51.653Z,1.93
2019-03-17T15:28:20.288Z,2.20
2019-03-17T15:31:05.617Z,1.70
2019-03-17T15:33:19.837Z,1.30
2019-03-17T15:35:48.312Z,1.33
2019-03-17T15:38:16.950Z,1.30
2019-03-17T15:40:45.726Z,0.97
2019-03-17T15:43:16.083Z,1.10
2019-03-17T15:45:44.500Z,1.30
2019-03-17T15:48:13.227Z,2.73
2019-03-17T15:50:41.940Z,1.33
2019-03-17T15:53:10.469Z,1.90
2019-03-17T15:55:38.864Z,2.17
2019-03-17T15:58:07.451Z,2.43
2019-03-17T16:00:35.982Z,3.43
2019-03-17T16:03:04.576Z,1.60
2019-03-17T16:05:34.519Z,1.70
2019-03-17T16:08:03.015Z,2.23
2019-03-17T16:10:32.303Z,2.20
2019-03-17T16:13:00.964Z,1.50
2019-03-17T16:15:29.468Z,1.70
2019-03-17T16:17:57.954Z,1.47
2019-03-17T16:20:27.251Z,4.00
2019-03-17T16:22:55.899Z,4.10
2019-03-17T16:25:26.833Z,2.73
2019-03-17T16:27:55.226Z,2.10
2019-03-17T16:30:31.639Z,2.30
2019-03-17T16:33:00.326Z,2.50
2019-03-17T16:35:28.835Z,1.77
2019-03-17T16:37:57.414Z,2.97
2019-03-17T16:40:35.784Z,1.77
2019-03-17T16:43:05.292Z,2.10
2019-03-17T16:45:34.810Z,2.10
2019-03-17T16:48:03.365Z,1.67
2019-03-17T16:50:31.871Z,2.20
2019-03-17T16:53:00.379Z,2.17
2019-03-17T16:55:28.847Z,2.50
2019-03-17T16:57:59.069Z,1.67
2019-03-17T17:00:27.595Z,2.07
2019-03-17T17:02:56.054Z,2.93
2019-03-17T17:05:25.428Z,1.70
2019-03-17T17:07:53.926Z,3.13
2019-03-17T17:10:25.738Z,2.10
2019-03-17T17:12:54.365Z,3.10
2019-03-17T17:15:27.140Z,2.27
2019-03-17T17:17:55.733Z,1.67
2019-03-17T17:20:27.503Z,2.00
2019-03-17T17:22:56.083Z,2.20
2019-03-17T17:25:24.552Z,2.20
2019-03-17T17:27:53.084Z,1.97
2019-03-17T17:30:21.522Z,1.60
2019-03-17T17:32:49.996Z,2.33
2019-03-17T17:35:18.814Z,2.30
2019-03-17T17:37:47.287Z,2.23
2019-03-17T17:40:20.214Z,2.47
2019-03-17T17:42:48.608Z,2.97
2019-03-17T17:45:25.149Z,2.37
2019-03-17T17:47:53.750Z,2.77
2019-03-17T17:50:23.953Z,2.50
2019-03-17T17:52:52.369Z,2.90
2019-03-17T17:55:20.776Z,2.23
2019-03-17T17:57:49.191Z,2.57
2019-03-17T18:00:22.795Z,2.30
2019-03-17T18:02:51.337Z,2.10
2019-03-17T18:05:19.971Z,3.93
2019-03-17T18:07:48.542Z,1.47
2019-03-17T18:10:19.930Z,2.17
2019-03-17T18:12:48.397Z,2.17
2019-03-17T18:15:21.893Z,2.50
2019-03-17T18:17:50.574Z,3.33
2019-03-17T18:20:19.059Z,3.30
2019-03-17T18:22:47.628Z,2.53
2019-03-17T18:25:23.876Z,2.90
2019-03-17T18:27:53.483Z,2.90
2019-03-17T18:30:24.241Z,2.20
2019-03-17T18:32:52.726Z,2.20
2019-03-17T18:35:21.403Z,2.13
2019-03-17T18:37:51.079Z,1.60
2019-03-17T18:40:42.165Z,2.00
2019-03-17T18:43:09.689Z,2.07
2019-03-17T18:45:38.314Z,2.30
2019-03-17T18:48:06.901Z,2.17
2019-03-17T18:50:35.401Z,2.23
2019-03-17T18:53:03.893Z,2.53
2019-03-17T18:55:32.346Z,2.10
2019-03-17T18:58:00.818Z,2.30
2019-03-17T19:00:29.380Z,2.33
2019-03-17T19:02:57.808Z,2.03
2019-03-17T19:05:26.344Z,2.13
2019-03-17T19:07:54.881Z,2.80
2019-03-17T19:10:23.341Z,1.90
2019-03-17T19:12:51.804Z,2.20
2019-03-17T19:15:24.092Z,1.97
2019-03-17T19:17:52.547Z,1.37
2019-03-17T19:20:21.843Z,1.90
2019-03-17T19:22:50.529Z,3.23
2019-03-17T19:25:25.573Z,2.30
2019-03-17T19:27:54.060Z,2.43
2019-03-17T19:30:23.260Z,2.17
2019-03-17T19:32:51.866Z,2.20
2019-03-17T19:35:20.336Z,2.47
2019-03-17T19:37:48.824Z,2.00
2019-03-17T19:40:18.480Z,2.43
2019-03-17T19:42:58.016Z,2.30
2019-03-17T19:45:17.247Z,2.17
2019-03-17T19:47:46.679Z,2.00
2019-03-17T19:50:16.515Z,1.63
2019-03-17T19:52:44.967Z,1.97
2019-03-17T19:55:13.350Z,2.00
2019-03-17T19:57:41.804Z,2.60
2019-03-17T20:00:15.055Z,2.47
2019-03-17T20:02:46.810Z,2.73
2019-03-17T20:05:13.951Z,2.33
2019-03-17T20:07:43.558Z,1.10
2019-03-17T20:10:14.943Z,2.40
2019-03-17T20:12:43.438Z,2.67
2019-03-17T20:15:11.976Z,2.23
2019-03-17T20:17:40.522Z,1.90
2019-03-17T20:20:11.698Z,1.70
2019-03-17T20:22:40.067Z,1.40
2019-03-17T20:25:08.606Z,1.30
2019-03-17T20:27:37.184Z,1.23
2019-03-17T20:30:11.288Z,1.17
2019-03-17T20:32:39.777Z,1.30
2019-03-17T20:35:10.234Z,1.50
2019-03-17T20:37:38.777Z,1.53
2019-03-17T20:40:11.820Z,1.20
2019-03-17T20:42:40.295Z,1.40
2019-03-17T20:45:13.101Z,1.27
2019-03-17T20:47:41.515Z,1.20
2019-03-17T20:50:11.869Z,2.10
2019-03-17T20:52:40.360Z,1.17
2019-03-17T20:55:10.420Z,1.20
2019-03-17T20:57:38.852Z,1.37
2019-03-17T21:00:13.983Z,1.63
2019-03-17T21:02:42.740Z,2.30
2019-03-17T21:05:11.948Z,1.40
2019-03-17T21:07:40.954Z,1.90
2019-03-17T21:10:12.125Z,1.53
2019-03-17T21:12:40.596Z,1.43
2019-03-17T21:15:11.968Z,1.30
2019-03-17T21:17:40.463Z,2.00
2019-03-17T21:20:13.898Z,2.43
2019-03-17T21:22:42.432Z,2.00
2019-03-17T21:25:11.434Z,1.90
2019-03-17T21:27:40.043Z,2.17
2019-03-17T21:30:14.560Z,2.00
2019-03-17T21:32:43.200Z,2.60
2019-03-17T21:35:11.771Z,3.83
2019-03-17T21:37:40.264Z,1.40
2019-03-17T21:40:28.140Z,1.40
2019-03-17T21:42:56.603Z,1.47
2019-03-17T21:45:27.275Z,1.67
2019-03-17T21:47:55.311Z,1.77
2019-03-17T21:50:23.829Z,2.10
2019-03-17T21:52:52.332Z,1.43
2019-03-17T21:55:20.833Z,1.63
2019-03-17T21:57:51.750Z,1.80
2019-03-17T22:00:20.782Z,1.37
2019-03-17T22:02:49.183Z,1.70
2019-03-17T22:05:17.610Z,1.37
2019-03-17T22:07:50.918Z,1.20
2019-03-17T22:10:17.487Z,1.23
2019-03-17T22:12:46.036Z,1.77
2019-03-17T22:15:15.433Z,1.50
2019-03-17T22:17:43.976Z,1.60
2019-03-17T22:20:15.891Z,1.20
2019-03-17T22:23:22.192Z,1.23
2019-03-17T22:25:50.863Z,1.43
2019-03-17T22:28:19.871Z,1.17
2019-03-17T22:30:48.547Z,1.20
2019-03-17T22:33:17.109Z,0.90
2019-03-17T22:35:45.551Z,1.43
2019-03-17T22:38:15.903Z,1.73
2019-03-17T22:40:44.341Z,1.23
2019-03-17T22:43:12.839Z,1.20
2019-03-17T22:45:41.371Z,1.13
2019-03-17T22:48:09.906Z,1.77
2019-03-17T22:50:38.386Z,1.63
2019-03-17T22:53:06.853Z,0.90
2019-03-17T22:55:35.320Z,0.93
2019-03-17T22:58:03.948Z,1.20
2019-03-17T23:00:34.008Z,1.80
2019-03-17T23:03:02.393Z,0.97
2019-03-17T23:05:30.820Z,1.83
2019-03-17T23:07:59.387Z,1.17
2019-03-17T23:10:27.998Z,0.77
2019-03-17T23:12:56.482Z,1.57
2019-03-17T23:15:24.942Z,1.73
2019-03-17T23:17:53.426Z,0.93
2019-03-17T23:20:21.973Z,1.73
2019-03-17T23:22:50.447Z,1.87
2019-03-17T23:25:18.955Z,1.27
2019-03-17T23:27:47.331Z,1.20
2019-03-17T23:30:17.244Z,1.40
2019-03-17T23:32:48.769Z,1.20
2019-03-17T23:35:15.879Z,1.10
2019-03-17T23:37:44.377Z,1.20
2019-03-17T23:40:14.139Z,0.97
2019-03-17T23:42:42.646Z,1.23
2019-03-17T23:45:12.104Z,0.93
2019-03-17T23:47:40.531Z,1.37
2019-03-17T23:50:13.411Z,0.80
2019-03-17T23:52:41.807Z,1.37
2019-03-17T23:55:15.980Z,0.90
2019-03-17T23:57:44.391Z,0.90
